Overview Statistics Trail Chart Weather Telemetry Raw packets
 

This is the latest recevied weather packets stored in our database for station/object HA2SKA-1. If no packets are shown the sender has not sent any weather packets the latest 10 day(s).

<< 5 6 7 8 9 10 11 >>
Time Temp. Humidity Pressure Rain* Wind** Luminosity Snow
1788510914 32.22° C 45% 1022.3 hPa - - - -
1788510014 30° C 49% 1022.3 hPa - - - -
1788509113 30.56° C 49% 1022.4 hPa - - - -
1788508213 28.89° C 51% 1022.3 hPa - - - -
1788507313 29.44° C 52% 1022.3 hPa - - - -
1788506413 30° C 51% 1022.2 hPa - - - -
1788505513 28.89° C 55% 1022.3 hPa - - - -
1788504613 26.67° C 63% 1022.3 hPa - - - -
1788503713 26.67° C 61% 1022.3 hPa - - - -
1788502813 26.11° C 65% 1022.3 hPa - - - -
1788501913 26.11° C 65% 1022.4 hPa - - - -
1788501013 25.56° C 68% 1022.4 hPa - - - -
1788500112 25° C 72% 1022.3 hPa - - - -
1788499212 24.44° C 76% 1022.1 hPa - - - -
1788498312 23.89° C 76% 1022.2 hPa - - - -
1788497412 24.44° C 69% 1022.1 hPa - - - -
1788496512 25° C 62% 1022 hPa - - - -
1788495612 24.44° C 63% 1022 hPa - - - -
1788494712 24.44° C 64% 1021.7 hPa - - - -
1788493812 24.44° C 64% 1021.7 hPa - - - -
1788492912 24.44° C 64% 1021.9 hPa - - - -
1788492012 24.44° C 69% 1021.8 hPa - - - -
1788491112 23.89° C 71% 1021.7 hPa - - - -
1788490211 23.33° C 74% 1021.9 hPa - - - -
1788489311 23.89° C 74% 1022.1 hPa - - - -

* Rain since midnight (hover to see other rain measurements)
** Current wind speed in m/s (hover to see current wind gust speed)